createdAt,value
2022-10-26T00:02:16.612Z,9.02
2022-10-26T00:05:18.145Z,9.03
2022-10-26T00:08:19.595Z,9.03
2022-10-26T00:11:22.645Z,9.03
2022-10-26T00:14:26.256Z,9.02
2022-10-26T00:17:27.842Z,9.02
2022-10-26T00:20:29.506Z,9.04
2022-10-26T00:23:31.715Z,9.07
2022-10-26T00:26:33.234Z,9.07
2022-10-26T00:29:36.138Z,9.06
2022-10-26T00:32:37.673Z,9.05
2022-10-26T00:35:46.026Z,9.06
2022-10-26T00:38:51.742Z,9.08
2022-10-26T00:41:53.284Z,9.09
2022-10-26T00:45:01.700Z,9.08
2022-10-26T00:48:06.666Z,9.06
2022-10-26T00:51:10.482Z,8.99
2022-10-26T00:54:13.563Z,8.97
2022-10-26T00:57:15.937Z,8.97
2022-10-26T01:00:19.476Z,8.98
2022-10-26T01:03:25.380Z,9.00
2022-10-26T01:06:28.058Z,9.02
2022-10-26T01:09:29.973Z,8.97
2022-10-26T01:12:34.522Z,8.97
2022-10-26T01:15:43.290Z,8.96
2022-10-26T01:18:48.738Z,8.98
2022-10-26T01:21:57.376Z,9.00
2022-10-26T01:25:06.321Z,9.04
2022-10-26T01:28:15.603Z,9.07
2022-10-26T01:31:20.889Z,9.11
2022-10-26T01:34:25.201Z,9.12
2022-10-26T01:37:28.567Z,9.22
2022-10-26T01:40:35.392Z,9.27
2022-10-26T01:43:40.570Z,9.35
2022-10-26T01:46:47.507Z,9.38
2022-10-26T01:49:51.440Z,9.40
2022-10-26T01:52:54.029Z,9.38
2022-10-26T01:55:56.010Z,9.40
2022-10-26T01:59:17.922Z,9.43
2022-10-26T02:02:39.225Z,9.45
2022-10-26T02:05:46.514Z,9.50
2022-10-26T02:08:55.682Z,9.50
2022-10-26T02:11:58.376Z,9.48
2022-10-26T02:15:05.875Z,9.49
2022-10-26T02:18:15.676Z,9.50
2022-10-26T02:21:20.155Z,9.53
2022-10-26T02:24:22.996Z,9.54
2022-10-26T02:27:26.865Z,9.53
2022-10-26T02:30:28.527Z,9.53
2022-10-26T02:33:33.272Z,9.49
2022-10-26T02:36:36.078Z,9.48
2022-10-26T02:39:38.948Z,9.45
2022-10-26T02:42:41.729Z,9.47
2022-10-26T02:45:44.282Z,9.47
2022-10-26T02:48:47.347Z,9.53
2022-10-26T02:51:50.508Z,9.55
2022-10-26T02:54:54.753Z,9.54
2022-10-26T02:57:59.150Z,9.55
2022-10-26T03:01:00.704Z,9.56
2022-10-26T03:04:04.606Z,9.53
2022-10-26T03:07:06.331Z,9.52
2022-10-26T03:10:08.264Z,9.53
2022-10-26T03:13:09.992Z,9.52
2022-10-26T03:16:11.795Z,9.50
2022-10-26T03:19:14.822Z,9.49
2022-10-26T03:22:16.510Z,9.49
2022-10-26T03:25:17.978Z,9.49
2022-10-26T03:28:19.552Z,9.50
2022-10-26T03:31:21.280Z,9.47
2022-10-26T03:34:24.218Z,9.46
2022-10-26T03:37:25.998Z,9.46
2022-10-26T03:40:27.414Z,9.45
2022-10-26T03:43:29.189Z,9.44
2022-10-26T03:46:30.657Z,9.47
2022-10-26T03:49:33.656Z,9.50
2022-10-26T03:52:35.177Z,9.51
2022-10-26T03:55:37.518Z,9.51
2022-10-26T03:58:39.083Z,9.50
2022-10-26T04:01:40.954Z,9.48
2022-10-26T04:04:43.996Z,9.44
2022-10-26T04:07:51.943Z,9.42
2022-10-26T04:10:54.151Z,9.41
2022-10-26T04:13:55.832Z,9.41
2022-10-26T04:16:57.438Z,9.38
2022-10-26T04:20:00.434Z,9.35
2022-10-26T04:23:03.203Z,9.38
2022-10-26T04:26:04.853Z,9.35
2022-10-26T04:29:06.876Z,9.35
2022-10-26T04:32:08.459Z,9.35
2022-10-26T04:35:14.635Z,9.36
2022-10-26T04:38:17.156Z,9.35
2022-10-26T04:41:18.592Z,9.36
2022-10-26T04:44:20.260Z,9.37
2022-10-26T04:47:21.741Z,9.38
2022-10-26T04:50:28.517Z,9.38
2022-10-26T04:53:30.286Z,9.38
2022-10-26T04:56:31.849Z,9.37
2022-10-26T04:59:33.505Z,9.37
2022-10-26T05:02:35.107Z,9.34
2022-10-26T05:05:38.089Z,9.35
2022-10-26T05:08:42.130Z,9.30
2022-10-26T05:11:43.617Z,9.25
2022-10-26T05:14:45.248Z,9.25
2022-10-26T05:17:47.104Z,9.27
2022-10-26T05:20:52.515Z,9.28
2022-10-26T05:23:55.356Z,9.29
2022-10-26T05:26:56.851Z,9.32
2022-10-26T05:29:58.472Z,9.31
2022-10-26T05:33:00.550Z,9.31
2022-10-26T05:36:03.580Z,9.35
2022-10-26T05:39:05.266Z,9.36
2022-10-26T05:42:06.834Z,9.38
2022-10-26T05:45:09.809Z,9.41
2022-10-26T05:48:11.596Z,9.38
2022-10-26T05:51:16.710Z,9.40
2022-10-26T05:54:18.279Z,9.42
2022-10-26T05:57:20.163Z,9.42
2022-10-26T06:00:24.250Z,9.43
2022-10-26T06:03:34.412Z,9.44
2022-10-26T06:06:39.960Z,9.45
2022-10-26T06:09:42.223Z,9.44
2022-10-26T06:12:44.178Z,9.47
2022-10-26T06:15:52.107Z,9.48
2022-10-26T06:19:02.107Z,9.49
2022-10-26T06:22:10.868Z,9.52
2022-10-26T06:25:17.745Z,9.52
2022-10-26T06:28:25.104Z,9.54
2022-10-26T06:31:27.220Z,9.59
2022-10-26T06:34:33.451Z,9.64
2022-10-26T06:37:37.714Z,9.68
2022-10-26T06:40:41.754Z,9.72
2022-10-26T06:43:43.546Z,9.75
2022-10-26T06:46:47.700Z,9.78
2022-10-26T06:49:56.258Z,9.82
2022-10-26T06:53:04.526Z,9.86
2022-10-26T06:56:06.403Z,9.86
2022-10-26T06:59:09.078Z,9.89
2022-10-26T07:02:15.104Z,9.92
2022-10-26T07:05:17.267Z,9.95
2022-10-26T07:08:20.292Z,9.99
2022-10-26T07:11:21.853Z,10.05
2022-10-26T07:14:23.570Z,10.12
2022-10-26T07:17:27.288Z,10.15
2022-10-26T07:20:28.819Z,10.22
2022-10-26T07:23:31.897Z,10.30
2022-10-26T07:26:33.517Z,10.33
2022-10-26T07:29:35.685Z,10.34
2022-10-26T07:32:37.447Z,10.36
2022-10-26T07:35:39.539Z,10.39
2022-10-26T07:38:42.526Z,10.41
2022-10-26T07:41:45.331Z,10.46
2022-10-26T07:44:46.886Z,10.48
2022-10-26T07:47:49.556Z,10.52
2022-10-26T07:50:55.494Z,10.56
2022-10-26T07:54:01.472Z,10.60
2022-10-26T07:57:03.208Z,10.63
2022-10-26T08:00:07.585Z,10.70
2022-10-26T08:03:09.189Z,10.76
2022-10-26T08:06:11.132Z,10.82
2022-10-26T08:09:14.143Z,10.85
2022-10-26T08:12:16.896Z,10.90
2022-10-26T08:15:18.398Z,10.91
2022-10-26T08:18:19.948Z,10.92
2022-10-26T08:21:26.102Z,10.99
2022-10-26T08:24:38.930Z,10.99
2022-10-26T08:27:40.540Z,11.03
2022-10-26T08:30:42.176Z,11.08
2022-10-26T08:33:45.033Z,11.11
2022-10-26T08:36:46.862Z,11.15
2022-10-26T08:39:53.577Z,11.18
2022-10-26T08:42:59.874Z,11.26
2022-10-26T08:46:05.833Z,11.45
2022-10-26T08:49:14.033Z,11.50
2022-10-26T08:52:18.008Z,11.53
2022-10-26T08:55:24.207Z,11.55
2022-10-26T08:58:27.085Z,11.53
2022-10-26T09:01:31.152Z,11.53
2022-10-26T09:04:34.243Z,11.59
2022-10-26T09:07:46.244Z,11.64
2022-10-26T09:10:54.271Z,11.74
2022-10-26T09:14:00.987Z,11.79
2022-10-26T09:17:08.339Z,11.80
2022-10-26T09:20:26.700Z,11.86
2022-10-26T09:23:32.681Z,11.87
2022-10-26T09:26:39.304Z,11.85
2022-10-26T09:29:49.164Z,11.84
2022-10-26T09:32:52.729Z,11.85
2022-10-26T09:35:57.803Z,11.82
2022-10-26T09:39:04.239Z,11.86
2022-10-26T09:42:14.506Z,11.88
2022-10-26T09:45:18.141Z,11.91
2022-10-26T09:48:22.867Z,11.95
2022-10-26T09:51:27.416Z,11.93
2022-10-26T09:54:30.112Z,11.92
2022-10-26T09:57:33.489Z,11.95
2022-10-26T10:03:41.579Z,12.12
2022-10-26T10:06:43.691Z,12.42
2022-10-26T10:09:47.627Z,12.68
2022-10-26T10:12:52.691Z,12.78
2022-10-26T10:15:55.252Z,12.82
2022-10-26T10:18:58.051Z,12.91
2022-10-26T10:22:00.479Z,12.92
2022-10-26T10:25:03.801Z,12.87
2022-10-26T10:31:22.991Z,12.89
2022-10-26T10:34:24.445Z,13.01
2022-10-26T10:37:27.378Z,13.29
2022-10-26T10:40:31.300Z,13.42
2022-10-26T10:43:34.483Z,13.64
2022-10-26T10:46:37.805Z,13.74
2022-10-26T10:49:39.548Z,13.79
2022-10-26T10:52:41.699Z,14.02
2022-10-26T10:55:45.160Z,14.21
2022-10-26T10:58:57.315Z,14.33
2022-10-26T11:02:04.314Z,14.48
2022-10-26T11:05:26.444Z,14.55
2022-10-26T11:08:30.927Z,14.55
2022-10-26T11:11:36.654Z,14.63
2022-10-26T11:14:45.145Z,14.76
2022-10-26T11:17:53.071Z,14.94
2022-10-26T11:24:12.189Z,15.03
2022-10-26T11:27:16.084Z,14.72
2022-10-26T11:30:20.486Z,14.50
2022-10-26T11:33:23.641Z,14.32
2022-10-26T11:36:27.227Z,14.30
2022-10-26T11:39:33.412Z,14.26
2022-10-26T11:42:38.540Z,14.21
2022-10-26T11:45:42.700Z,14.23
2022-10-26T11:48:47.595Z,14.25
2022-10-26T11:51:52.465Z,14.52
2022-10-26T11:54:54.831Z,14.55
2022-10-26T11:57:58.125Z,14.52
2022-10-26T12:01:04.266Z,14.61
2022-10-26T12:04:08.032Z,14.78
2022-10-26T12:07:13.659Z,14.91
2022-10-26T12:10:23.789Z,15.06
2022-10-26T12:13:31.919Z,15.13
2022-10-26T12:16:42.751Z,15.10
2022-10-26T12:19:50.074Z,15.20
2022-10-26T12:22:52.016Z,15.30
2022-10-26T12:26:17.527Z,15.35
2022-10-26T12:29:29.792Z,15.31
2022-10-26T12:32:49.593Z,15.41
2022-10-26T12:35:52.868Z,15.49
2022-10-26T12:38:59.865Z,15.49
2022-10-26T12:42:10.675Z,15.56
2022-10-26T12:45:18.526Z,15.54
2022-10-26T12:48:34.687Z,15.59
2022-10-26T12:51:44.293Z,15.61
2022-10-26T12:54:49.975Z,15.39
2022-10-26T12:57:58.471Z,15.21
2022-10-26T13:01:28.589Z,15.13
2022-10-26T13:04:49.603Z,15.08
2022-10-26T13:07:52.854Z,15.00
2022-10-26T13:11:03.134Z,14.93
2022-10-26T13:14:07.051Z,14.88
2022-10-26T13:17:21.304Z,14.82
2022-10-26T13:20:23.054Z,14.94
2022-10-26T13:23:27.261Z,15.03
2022-10-26T13:26:29.629Z,15.11
2022-10-26T13:29:33.498Z,15.28
2022-10-26T13:32:35.997Z,15.49
2022-10-26T13:35:40.139Z,15.55
2022-10-26T13:38:45.434Z,15.55
2022-10-26T13:41:48.970Z,15.57
2022-10-26T13:44:53.395Z,15.68
2022-10-26T13:47:57.647Z,15.74
2022-10-26T13:51:01.443Z,15.80
2022-10-26T13:54:07.314Z,15.97
2022-10-26T13:57:13.714Z,16.02
2022-10-26T14:00:17.141Z,15.99
2022-10-26T14:03:21.261Z,16.00
2022-10-26T14:06:26.612Z,16.03
2022-10-26T14:09:29.948Z,16.02
2022-10-26T14:12:32.174Z,16.03
2022-10-26T14:15:34.920Z,16.03
2022-10-26T14:18:37.020Z,16.01
2022-10-26T14:21:40.031Z,15.98
2022-10-26T14:24:50.716Z,15.90
2022-10-26T14:27:52.818Z,15.84
2022-10-26T14:30:54.584Z,15.78
2022-10-26T14:33:57.406Z,15.72
2022-10-26T14:37:00.290Z,15.66
2022-10-26T14:40:04.111Z,15.64
2022-10-26T14:43:05.976Z,15.60
2022-10-26T14:46:12.899Z,15.58
2022-10-26T14:49:17.994Z,15.52
2022-10-26T14:52:22.404Z,15.48
2022-10-26T14:55:26.095Z,15.43
2022-10-26T15:01:36.551Z,15.35
2022-10-26T15:04:39.771Z,15.34
2022-10-26T15:07:43.605Z,15.33
2022-10-26T15:10:47.471Z,15.31
2022-10-26T15:13:49.035Z,15.27
2022-10-26T15:16:53.321Z,15.24
2022-10-26T15:19:55.251Z,15.19
2022-10-26T15:22:57.951Z,15.15
2022-10-26T15:26:01.976Z,15.11
2022-10-26T15:29:03.753Z,15.09
2022-10-26T15:32:06.621Z,15.08
2022-10-26T15:35:31.645Z,15.07
2022-10-26T15:38:33.323Z,15.04
2022-10-26T15:41:40.200Z,15.00
2022-10-26T15:44:44.483Z,14.97
2022-10-26T15:47:47.204Z,14.93
2022-10-26T15:50:48.732Z,14.89
2022-10-26T15:53:50.572Z,14.86
2022-10-26T15:56:54.007Z,14.83
2022-10-26T15:59:55.456Z,14.79
2022-10-26T16:02:57.246Z,14.75
2022-10-26T16:06:00.181Z,14.69
2022-10-26T16:09:02.780Z,14.67
2022-10-26T16:12:06.242Z,14.63
2022-10-26T16:15:09.204Z,14.64
2022-10-26T16:18:10.706Z,14.65
2022-10-26T16:21:12.502Z,14.59
2022-10-26T16:24:14.243Z,14.54
2022-10-26T16:27:17.810Z,14.51
2022-10-26T16:30:25.836Z,14.52
2022-10-26T16:33:28.846Z,14.52
2022-10-26T16:36:30.397Z,14.56
2022-10-26T16:39:31.948Z,14.54
2022-10-26T16:42:37.615Z,14.50
2022-10-26T16:45:39.897Z,14.45
2022-10-26T16:48:42.345Z,14.45
2022-10-26T16:51:43.919Z,14.41
2022-10-26T16:54:45.591Z,14.38
2022-10-26T16:57:48.972Z,14.39
2022-10-26T17:00:54.282Z,14.39
2022-10-26T17:03:56.125Z,14.32
2022-10-26T17:06:57.721Z,14.28
2022-10-26T17:09:59.194Z,14.25
2022-10-26T17:13:04.221Z,14.26
2022-10-26T17:16:06.974Z,14.26
2022-10-26T17:19:10.598Z,14.28
2022-10-26T17:22:12.197Z,14.27
2022-10-26T17:25:17.716Z,14.27
2022-10-26T17:28:20.653Z,14.26
2022-10-26T17:31:23.189Z,14.31
2022-10-26T17:34:24.765Z,14.28
2022-10-26T17:37:26.246Z,14.24
2022-10-26T17:40:28.116Z,14.27
2022-10-26T17:43:31.800Z,14.27
2022-10-26T17:46:36.368Z,14.28
2022-10-26T17:49:37.947Z,14.28
2022-10-26T17:52:39.569Z,14.24
2022-10-26T17:55:41.122Z,14.18
2022-10-26T17:58:44.296Z,14.17
2022-10-26T18:01:46.066Z,14.16
2022-10-26T18:04:49.717Z,14.13
2022-10-26T18:07:51.639Z,14.13
2022-10-26T18:10:55.756Z,14.11
2022-10-26T18:13:58.970Z,14.08
2022-10-26T18:17:00.500Z,14.01
2022-10-26T18:20:02.184Z,14.02
2022-10-26T18:23:04.155Z,13.98
2022-10-26T18:26:11.317Z,13.95
2022-10-26T18:29:16.274Z,13.94
2022-10-26T18:32:17.985Z,13.96
2022-10-26T18:35:19.498Z,13.94
2022-10-26T18:38:22.011Z,13.91
2022-10-26T18:41:24.615Z,13.95
2022-10-26T18:44:27.542Z,13.98
2022-10-26T18:47:29.089Z,13.96
2022-10-26T18:50:30.545Z,13.95
2022-10-26T18:53:33.425Z,14.07
2022-10-26T18:56:35.038Z,14.24
2022-10-26T18:59:38.283Z,14.31
2022-10-26T19:02:40.660Z,14.20
2022-10-26T19:05:42.313Z,14.16
2022-10-26T19:08:44.040Z,14.17
2022-10-26T19:11:46.014Z,14.21
2022-10-26T19:14:49.033Z,14.26
2022-10-26T19:17:51.006Z,14.29
2022-10-26T19:20:57.614Z,14.30
2022-10-26T19:24:00.706Z,14.29
2022-10-26T19:27:02.421Z,14.30
2022-10-26T19:30:05.842Z,14.32
2022-10-26T19:33:07.305Z,14.37
2022-10-26T19:36:11.450Z,14.36
2022-10-26T19:39:13.106Z,14.37
2022-10-26T19:42:14.769Z,14.37
2022-10-26T19:45:17.740Z,14.45
2022-10-26T19:48:19.374Z,14.39
2022-10-26T19:51:21.668Z,14.44
2022-10-26T19:54:23.154Z,14.51
2022-10-26T19:57:24.657Z,14.53
2022-10-26T20:00:29.380Z,14.53
2022-10-26T20:03:31.238Z,14.48
2022-10-26T20:06:32.730Z,14.46
2022-10-26T20:09:34.299Z,14.35
2022-10-26T20:12:35.820Z,14.19
2022-10-26T20:15:38.995Z,14.12
2022-10-26T20:18:44.155Z,14.08
2022-10-26T20:21:51.007Z,13.99
2022-10-26T20:24:52.656Z,13.94
2022-10-26T20:27:54.227Z,13.98
2022-10-26T20:30:57.272Z,13.96
2022-10-26T20:34:00.786Z,13.88
2022-10-26T20:37:02.902Z,13.91
2022-10-26T20:40:05.027Z,13.95
2022-10-26T20:43:06.862Z,14.06
2022-10-26T20:46:11.500Z,14.15
2022-10-26T20:49:13.269Z,14.20
2022-10-26T20:52:21.423Z,14.30
2022-10-26T20:55:29.602Z,14.31
2022-10-26T20:58:41.071Z,14.29
2022-10-26T21:01:44.853Z,14.25
2022-10-26T21:04:46.745Z,14.25
2022-10-26T21:07:48.552Z,14.21
2022-10-26T21:10:50.640Z,14.15
2022-10-26T21:13:53.322Z,14.18
2022-10-26T21:16:56.388Z,14.16
2022-10-26T21:19:57.834Z,14.10
2022-10-26T21:22:59.464Z,14.05
2022-10-26T21:26:01.132Z,14.01
2022-10-26T21:29:03.313Z,13.99
2022-10-26T21:32:06.541Z,13.99
2022-10-26T21:35:08.351Z,13.92
2022-10-26T21:38:09.895Z,13.94
2022-10-26T21:41:12.993Z,13.88
2022-10-26T21:44:32.642Z,13.80
2022-10-26T21:47:37.763Z,13.76
2022-10-26T21:50:41.230Z,13.73
2022-10-26T21:53:42.910Z,13.72
2022-10-26T21:56:44.732Z,13.70
2022-10-26T21:59:46.570Z,13.66
2022-10-26T22:02:49.980Z,13.61
2022-10-26T22:05:52.262Z,13.59
2022-10-26T22:08:54.106Z,13.58
2022-10-26T22:11:55.588Z,13.58
2022-10-26T22:14:57.095Z,13.56
2022-10-26T22:18:00.284Z,13.55
2022-10-26T22:21:02.253Z,13.60
2022-10-26T22:24:04.497Z,13.66
2022-10-26T22:27:05.938Z,13.71
2022-10-26T22:30:08.107Z,13.77
2022-10-26T22:33:12.622Z,13.81
2022-10-26T22:36:15.654Z,13.83
2022-10-26T22:39:17.968Z,13.84
2022-10-26T22:42:19.440Z,13.82
2022-10-26T22:45:20.966Z,13.78
2022-10-26T22:48:23.797Z,13.75
2022-10-26T22:51:28.513Z,13.69
2022-10-26T22:54:29.987Z,13.60
2022-10-26T22:57:31.527Z,13.55
2022-10-26T23:00:33.183Z,13.55
2022-10-26T23:03:36.496Z,13.62
2022-10-26T23:06:38.068Z,13.62
2022-10-26T23:09:39.543Z,13.63
2022-10-26T23:12:41.094Z,13.61
2022-10-26T23:15:42.789Z,13.47
2022-10-26T23:18:45.872Z,13.39
2022-10-26T23:21:47.429Z,13.25
2022-10-26T23:24:48.998Z,13.10
2022-10-26T23:27:50.671Z,12.98
2022-10-26T23:30:53.074Z,12.90
2022-10-26T23:33:56.484Z,12.90
2022-10-26T23:36:57.951Z,12.84
2022-10-26T23:39:59.535Z,12.82
2022-10-26T23:43:01.293Z,12.87
2022-10-26T23:46:05.912Z,12.91
2022-10-26T23:49:08.947Z,12.85
2022-10-26T23:52:11.708Z,12.79
2022-10-26T23:55:13.652Z,12.67
2022-10-26T23:58:15.768Z,12.56
